createdAt,value
2018-11-13T00:02:38.369Z,81.20
2018-11-13T00:05:42.592Z,81.30
2018-11-13T00:08:46.873Z,81.40
2018-11-13T00:11:51.405Z,80.70
2018-11-13T00:14:55.597Z,81.40
2018-11-13T00:18:00.019Z,81.60
2018-11-13T00:21:03.953Z,81.70
2018-11-13T00:24:08.353Z,82.10
2018-11-13T00:27:12.094Z,81.90
2018-11-13T00:30:17.680Z,81.50
2018-11-13T00:33:22.063Z,81.40
2018-11-13T00:36:25.931Z,81.50
2018-11-13T00:39:29.845Z,81.50
2018-11-13T00:42:33.807Z,81.70
2018-11-13T00:45:37.776Z,81.70
2018-11-13T00:48:41.748Z,81.70
2018-11-13T00:51:45.742Z,81.70
2018-11-13T00:54:50.194Z,81.70
2018-11-13T00:57:54.391Z,81.60
2018-11-13T01:00:58.399Z,81.70
2018-11-13T01:04:02.300Z,82.10
2018-11-13T01:07:06.409Z,82.20
2018-11-13T01:10:13.015Z,82.20
2018-11-13T01:13:16.980Z,82.10
2018-11-13T01:16:21.002Z,82.10
2018-11-13T01:19:24.994Z,82.10
2018-11-13T01:22:28.973Z,82.10
2018-11-13T01:25:39.679Z,81.90
2018-11-13T01:28:43.646Z,82.00
2018-11-13T01:31:47.523Z,82.10
2018-11-13T01:34:51.525Z,81.90
2018-11-13T01:37:55.488Z,81.60
2018-11-13T01:40:59.998Z,81.50
2018-11-13T01:44:04.223Z,81.50
2018-11-13T01:47:08.271Z,81.40
2018-11-13T01:50:12.830Z,82.00
2018-11-13T01:53:16.809Z,82.00
2018-11-13T01:56:20.800Z,83.00
2018-11-13T01:59:24.819Z,83.10
2018-11-13T02:02:28.759Z,83.50
2018-11-13T02:05:32.790Z,83.70
2018-11-13T02:08:36.756Z,83.60
2018-11-13T02:11:40.930Z,83.70
2018-11-13T02:14:44.887Z,83.50
2018-11-13T02:17:49.719Z,83.60
2018-11-13T02:20:53.706Z,83.10
2018-11-13T02:23:57.784Z,83.10
2018-11-13T02:27:01.740Z,83.00
2018-11-13T02:30:06.518Z,82.90
2018-11-13T02:33:10.439Z,83.00
2018-11-13T02:36:14.878Z,83.10
2018-11-13T02:39:18.838Z,84.20
2018-11-13T02:42:22.709Z,85.50
2018-11-13T02:45:26.665Z,85.00
2018-11-13T02:48:30.620Z,84.60
2018-11-13T02:51:36.125Z,84.30
2018-11-13T02:54:40.272Z,84.00
2018-11-13T02:57:45.248Z,84.00
2018-11-13T03:00:49.497Z,83.70
2018-11-13T03:03:53.790Z,83.60
2018-11-13T03:06:58.513Z,83.40
2018-11-13T03:10:02.935Z,83.20
2018-11-13T03:13:07.287Z,83.10
2018-11-13T03:16:11.742Z,82.90
2018-11-13T03:19:16.083Z,82.90
2018-11-13T03:22:20.258Z,83.20
2018-11-13T03:25:24.418Z,83.60
2018-11-13T03:28:28.918Z,84.30
2018-11-13T03:31:33.445Z,83.90
2018-11-13T03:34:37.736Z,83.80
2018-11-13T03:37:42.288Z,83.80
2018-11-13T03:40:46.790Z,84.00
2018-11-13T03:43:50.836Z,84.10
2018-11-13T03:46:55.253Z,84.30
2018-11-13T03:49:59.771Z,84.30
2018-11-13T03:53:04.086Z,84.10
2018-11-13T03:56:08.403Z,83.90
2018-11-13T03:59:12.838Z,83.90
2018-11-13T04:02:17.143Z,84.20
2018-11-13T04:05:22.062Z,84.30
2018-11-13T04:08:26.406Z,84.30
2018-11-13T04:11:30.841Z,84.30
2018-11-13T04:14:35.218Z,84.30
2018-11-13T04:17:39.640Z,84.30
2018-11-13T04:20:43.957Z,84.20
2018-11-13T04:23:48.407Z,84.10
2018-11-13T04:26:52.775Z,84.20
2018-11-13T04:29:57.209Z,84.20
2018-11-13T04:33:01.699Z,84.00
2018-11-13T04:36:06.414Z,84.20
2018-11-13T04:39:10.593Z,84.60
2018-11-13T04:42:14.965Z,84.60
2018-11-13T04:45:20.458Z,84.70
2018-11-13T04:48:24.952Z,84.50
2018-11-13T04:51:29.141Z,84.30
2018-11-13T04:54:33.617Z,84.20
2018-11-13T04:57:38.247Z,84.10
2018-11-13T05:00:42.628Z,83.80
2018-11-13T05:03:46.797Z,84.40
2018-11-13T05:06:51.066Z,84.40
2018-11-13T05:09:55.451Z,84.00
2018-11-13T05:12:59.742Z,83.80
2018-11-13T05:16:03.929Z,83.80
2018-11-13T05:19:08.217Z,84.00
2018-11-13T05:22:12.344Z,83.70
2018-11-13T05:25:18.197Z,84.00
2018-11-13T05:28:23.016Z,83.90
2018-11-13T05:31:27.453Z,84.10
2018-11-13T05:34:31.798Z,84.00
2018-11-13T05:37:36.338Z,84.30
2018-11-13T05:40:41.360Z,84.30
2018-11-13T05:43:45.486Z,84.40
2018-11-13T05:46:50.268Z,84.60
2018-11-13T05:49:54.594Z,84.70
2018-11-13T05:52:59.385Z,84.80
2018-11-13T05:56:03.548Z,84.90
2018-11-13T05:59:07.739Z,85.00
2018-11-13T06:02:12.397Z,85.00
2018-11-13T06:05:16.897Z,85.60
2018-11-13T06:08:21.102Z,86.50
2018-11-13T06:11:25.528Z,86.40
2018-11-13T06:14:29.739Z,86.40
2018-11-13T06:17:34.176Z,86.40
2018-11-13T06:20:38.331Z,86.30
2018-11-13T06:23:42.591Z,86.20
2018-11-13T06:26:46.873Z,86.40
2018-11-13T06:29:51.075Z,87.10
2018-11-13T06:32:55.404Z,86.90
2018-11-13T06:35:59.731Z,86.00
2018-11-13T06:39:04.474Z,85.30
2018-11-13T06:42:08.867Z,85.40
2018-11-13T06:45:19.316Z,85.70
2018-11-13T06:48:23.545Z,85.50
2018-11-13T06:51:27.947Z,85.50
2018-11-13T06:55:14.544Z,85.50
2018-11-13T06:58:18.913Z,85.30
2018-11-13T07:01:23.091Z,83.40
2018-11-13T07:04:27.594Z,82.90
2018-11-13T07:07:31.969Z,82.10
2018-11-13T07:10:36.410Z,81.50
2018-11-13T07:13:40.653Z,81.00
2018-11-13T07:16:44.879Z,81.20
2018-11-13T07:19:49.195Z,81.70
2018-11-13T07:22:53.353Z,82.60
2018-11-13T07:25:57.679Z,82.10
2018-11-13T07:29:03.177Z,81.50
2018-11-13T07:32:07.491Z,80.20
2018-11-13T07:35:12.949Z,80.00
2018-11-13T07:38:17.124Z,79.40
2018-11-13T07:41:21.333Z,79.80
2018-11-13T07:44:25.781Z,79.10
2018-11-13T07:47:30.226Z,78.80
2018-11-13T07:50:34.542Z,78.70
2018-11-13T07:53:38.936Z,78.30
2018-11-13T07:56:43.259Z,78.50
2018-11-13T07:59:47.611Z,77.30
2018-11-13T08:02:54.184Z,77.60
2018-11-13T08:05:58.505Z,77.00
2018-11-13T08:09:02.995Z,76.00
2018-11-13T08:12:07.472Z,75.00
2018-11-13T08:15:13.108Z,74.30
2018-11-13T08:18:17.639Z,72.90
2018-11-13T08:21:22.086Z,72.30
2018-11-13T08:24:26.243Z,71.80
2018-11-13T08:27:30.803Z,71.40
2018-11-13T08:30:35.228Z,70.10
2018-11-13T08:33:39.561Z,70.40
2018-11-13T08:36:43.896Z,69.40
2018-11-13T08:39:48.103Z,69.20
2018-11-13T08:42:52.492Z,68.70
2018-11-13T08:45:56.755Z,68.80
2018-11-13T08:49:01.251Z,68.20
2018-11-13T08:52:05.914Z,67.40
2018-11-13T08:55:11.274Z,66.70
2018-11-13T08:58:15.677Z,66.20
2018-11-13T09:01:20.302Z,65.00
2018-11-13T09:04:24.683Z,64.60
2018-11-13T09:07:29.174Z,64.20
2018-11-13T09:10:33.357Z,63.40
2018-11-13T09:13:37.889Z,63.20
2018-11-13T09:16:42.347Z,63.30
2018-11-13T09:19:46.435Z,62.60
2018-11-13T09:22:50.744Z,62.00
2018-11-13T09:25:55.160Z,61.30
2018-11-13T09:28:59.614Z,61.50
2018-11-13T09:32:03.934Z,59.70
2018-11-13T09:35:08.524Z,58.30
2018-11-13T09:38:12.785Z,56.90
2018-11-13T09:41:17.148Z,56.40
2018-11-13T09:44:21.507Z,55.50
2018-11-13T09:47:25.925Z,54.40
2018-11-13T09:50:30.406Z,50.80
2018-11-13T09:53:34.748Z,46.80
2018-11-13T09:56:39.019Z,44.90
2018-11-13T09:59:43.454Z,43.30
2018-11-13T10:02:52.988Z,38.50
2018-11-13T10:05:56.607Z,33.60
2018-11-13T10:09:00.857Z,31.20
2018-11-13T10:12:05.243Z,31.70
2018-11-13T10:15:12.170Z,33.20
2018-11-13T10:18:16.872Z,34.80
2018-11-13T10:21:21.012Z,36.40
2018-11-13T10:24:25.316Z,38.50
2018-11-13T10:27:29.646Z,42.40
2018-11-13T10:30:34.238Z,44.80
2018-11-13T10:33:38.309Z,46.80
2018-11-13T10:36:42.919Z,48.00
2018-11-13T10:39:47.153Z,49.60
2018-11-13T10:42:51.736Z,50.80
2018-11-13T10:45:56.229Z,51.10
2018-11-13T10:49:01.501Z,51.80
2018-11-13T10:52:05.977Z,53.20
2018-11-13T10:55:10.727Z,54.20
2018-11-13T10:58:14.817Z,54.50
2018-11-13T11:01:23.815Z,55.10
2018-11-13T11:04:33.143Z,55.80
2018-11-13T11:07:37.266Z,55.00
2018-11-13T11:10:41.235Z,52.20
2018-11-13T11:13:45.161Z,49.50
2018-11-13T11:16:49.745Z,48.60
2018-11-13T11:19:53.989Z,48.10
2018-11-13T11:22:58.824Z,47.20
2018-11-13T11:26:03.232Z,47.40
2018-11-13T11:29:07.217Z,47.70
2018-11-13T11:32:11.589Z,47.80
2018-11-13T11:35:15.517Z,47.50
2018-11-13T11:38:19.948Z,46.40
2018-11-13T11:41:24.556Z,45.30
2018-11-13T11:44:28.921Z,44.90
2018-11-13T11:47:32.974Z,46.40
2018-11-13T11:50:37.303Z,46.50
2018-11-13T11:53:41.690Z,46.70
2018-11-13T11:56:45.987Z,46.80
2018-11-13T11:59:50.202Z,48.50
2018-11-13T12:02:54.575Z,50.10
2018-11-13T12:05:58.473Z,51.70
2018-11-13T12:09:02.843Z,51.60
2018-11-13T12:12:07.076Z,52.40
2018-11-13T12:15:13.177Z,52.30
2018-11-13T12:18:17.178Z,52.20
2018-11-13T12:21:21.723Z,51.80
2018-11-13T12:24:25.680Z,52.10
2018-11-13T12:27:29.922Z,52.10
2018-11-13T12:30:34.105Z,51.80
2018-11-13T12:33:38.828Z,51.60
2018-11-13T12:36:43.231Z,51.40
2018-11-13T12:39:47.608Z,51.30
2018-11-13T12:42:51.749Z,51.20
2018-11-13T12:45:56.066Z,51.10
2018-11-13T12:49:00.859Z,51.70
2018-11-13T12:52:10.342Z,51.80
2018-11-13T12:55:17.351Z,52.10
2018-11-13T12:58:21.714Z,52.10
2018-11-13T13:01:26.047Z,51.90
2018-11-13T13:04:30.681Z,52.20
2018-11-13T13:07:34.776Z,52.90
2018-11-13T13:10:38.846Z,52.90
2018-11-13T13:13:44.217Z,53.50
2018-11-13T13:16:48.204Z,54.30
2018-11-13T13:19:53.248Z,55.10
2018-11-13T13:22:57.373Z,55.30
2018-11-13T13:26:01.875Z,55.90
2018-11-13T13:29:06.671Z,56.40
2018-11-13T13:32:10.861Z,56.80
2018-11-13T13:35:56.551Z,57.00
2018-11-13T13:39:00.973Z,57.30
2018-11-13T13:42:05.506Z,57.70
2018-11-13T13:45:10.026Z,58.10
2018-11-13T13:48:14.476Z,58.40
2018-11-13T13:51:18.789Z,58.80
2018-11-13T13:54:22.814Z,59.10
2018-11-13T13:57:27.037Z,59.60
2018-11-13T14:00:31.748Z,60.00
2018-11-13T14:03:36.135Z,60.50
2018-11-13T14:06:40.699Z,60.50
2018-11-13T14:09:44.678Z,61.00
2018-11-13T14:12:48.691Z,61.60
2018-11-13T14:15:53.000Z,62.00
2018-11-13T14:18:56.930Z,62.50
2018-11-13T14:22:01.453Z,62.80
2018-11-13T14:25:05.717Z,62.90
2018-11-13T14:28:09.991Z,63.20
2018-11-13T14:31:14.032Z,63.90
2018-11-13T14:34:18.341Z,64.30
2018-11-13T14:37:22.482Z,64.90
2018-11-13T14:40:31.007Z,65.20
2018-11-13T14:43:35.350Z,65.70
2018-11-13T14:46:39.797Z,66.30
2018-11-13T14:49:43.760Z,66.90
2018-11-13T14:52:48.459Z,67.10
2018-11-13T14:55:52.891Z,67.70
2018-11-13T14:58:57.384Z,68.70
2018-11-13T15:02:01.609Z,68.90
2018-11-13T15:05:07.533Z,69.80
2018-11-13T15:08:12.388Z,71.50
2018-11-13T15:11:16.649Z,72.60
2018-11-13T15:14:20.952Z,72.80
2018-11-13T15:17:25.291Z,73.80
2018-11-13T15:20:29.362Z,74.60
2018-11-13T15:23:33.763Z,74.90
2018-11-13T15:26:38.057Z,75.20
2018-11-13T15:29:42.578Z,75.70
2018-11-13T15:33:04.888Z,76.30
2018-11-13T15:36:09.083Z,76.50
2018-11-13T15:39:13.695Z,77.90
2018-11-13T15:42:17.682Z,78.00
2018-11-13T15:45:22.267Z,78.10
2018-11-13T15:48:26.379Z,78.40
2018-11-13T15:51:31.083Z,78.50
2018-11-13T15:54:35.164Z,78.60
2018-11-13T15:57:40.398Z,78.90
2018-11-13T16:00:44.610Z,79.00
2018-11-13T16:03:48.641Z,79.10
2018-11-13T16:06:52.648Z,79.20
2018-11-13T16:10:00.685Z,79.30
2018-11-13T16:13:04.791Z,79.30
2018-11-13T16:16:09.069Z,79.30
2018-11-13T16:19:13.073Z,79.30
2018-11-13T16:22:17.467Z,79.30
2018-11-13T16:25:22.057Z,79.30
2018-11-13T16:28:27.627Z,79.30
2018-11-13T16:31:31.700Z,79.30
2018-11-13T16:34:35.594Z,79.30
2018-11-13T16:37:41.188Z,79.30
2018-11-13T16:40:45.511Z,79.90
2018-11-13T16:43:49.886Z,80.00
2018-11-13T16:46:54.138Z,80.60
2018-11-13T16:49:58.619Z,81.00
2018-11-13T16:53:02.978Z,80.90
2018-11-13T16:56:06.974Z,81.00
2018-11-13T16:59:10.893Z,81.80
2018-11-13T17:02:14.999Z,81.20
2018-11-13T17:05:19.749Z,81.30
2018-11-13T17:08:23.866Z,81.30
2018-11-13T17:11:27.906Z,82.20
2018-11-13T17:14:32.511Z,81.80
2018-11-13T17:17:36.614Z,82.00
2018-11-13T17:20:40.545Z,81.90
2018-11-13T17:23:44.553Z,82.00
2018-11-13T17:26:48.461Z,81.90
2018-11-13T17:29:53.046Z,81.80
2018-11-13T17:32:58.072Z,82.00
2018-11-13T17:36:02.273Z,82.10
2018-11-13T17:39:10.436Z,82.00
2018-11-13T17:42:14.771Z,82.00
2018-11-13T17:45:24.000Z,82.10
2018-11-13T17:48:27.939Z,82.00
2018-11-13T17:51:32.201Z,82.20
2018-11-13T17:54:36.752Z,81.90
2018-11-13T17:57:41.053Z,81.90
2018-11-13T18:00:46.480Z,82.00
2018-11-13T18:03:50.434Z,81.90
2018-11-13T18:06:54.345Z,81.90
2018-11-13T18:09:58.591Z,82.20
2018-11-13T18:13:03.095Z,82.50
2018-11-13T18:16:07.579Z,82.70
2018-11-13T18:19:11.485Z,82.60
2018-11-13T18:22:15.491Z,82.60
2018-11-13T18:25:19.736Z,82.60
2018-11-13T18:28:24.051Z,82.70
2018-11-13T18:31:28.537Z,82.70
2018-11-13T18:34:33.099Z,82.80
2018-11-13T18:37:37.444Z,83.20
2018-11-13T18:40:42.251Z,84.00
2018-11-13T18:43:46.572Z,83.30
2018-11-13T18:46:50.900Z,83.20
2018-11-13T18:49:55.643Z,83.50
2018-11-13T18:52:59.899Z,83.90
2018-11-13T18:56:03.854Z,84.10
2018-11-13T18:59:08.255Z,84.50
2018-11-13T19:02:12.224Z,84.60
2018-11-13T19:05:16.753Z,85.10
2018-11-13T19:08:20.543Z,85.20
2018-11-13T19:11:24.589Z,85.80
2018-11-13T19:14:28.554Z,86.10
2018-11-13T19:17:32.671Z,86.20
2018-11-13T19:20:36.612Z,86.10
2018-11-13T19:23:40.864Z,86.10
2018-11-13T19:26:45.591Z,86.00
2018-11-13T19:29:49.668Z,86.50
2018-11-13T19:32:53.620Z,86.50
2018-11-13T19:35:57.761Z,86.40
2018-11-13T19:39:01.749Z,86.30
2018-11-13T19:42:05.959Z,86.40
2018-11-13T19:45:10.051Z,86.60
2018-11-13T19:48:14.152Z,86.60
2018-11-13T19:51:18.738Z,86.80
2018-11-13T19:54:22.775Z,87.00
2018-11-13T19:57:27.812Z,87.20
2018-11-13T20:00:36.312Z,87.10
2018-11-13T20:03:40.694Z,87.40
2018-11-13T20:06:44.614Z,87.70
2018-11-13T20:09:48.556Z,87.90
2018-11-13T20:12:53.991Z,88.40
2018-11-13T20:15:58.081Z,88.50
2018-11-13T20:19:03.300Z,88.60
2018-11-13T20:22:07.328Z,88.90
2018-11-13T20:25:14.211Z,89.00
2018-11-13T20:28:18.718Z,89.00
2018-11-13T20:31:22.936Z,88.90
2018-11-13T20:34:26.883Z,88.60
2018-11-13T20:37:31.252Z,88.80
2018-11-13T20:40:36.467Z,89.00
2018-11-13T20:43:40.733Z,89.60
2018-11-13T20:46:45.794Z,89.70
2018-11-13T20:49:50.273Z,89.90
2018-11-13T20:52:54.343Z,90.00
2018-11-13T20:55:58.436Z,90.00
2018-11-13T20:59:02.905Z,90.20
2018-11-13T21:02:07.638Z,90.10
2018-11-13T21:05:11.934Z,90.10
2018-11-13T21:08:16.272Z,90.40
2018-11-13T21:11:20.685Z,90.50
2018-11-13T21:14:25.034Z,90.40
2018-11-13T21:17:29.058Z,90.30
2018-11-13T21:20:33.724Z,90.40
2018-11-13T21:23:37.790Z,90.20
2018-11-13T21:26:43.057Z,90.40
2018-11-13T21:29:47.389Z,90.70
2018-11-13T21:32:52.580Z,90.90
2018-11-13T21:35:56.990Z,90.80
2018-11-13T21:39:01.500Z,90.80
2018-11-13T21:42:05.707Z,90.60
2018-11-13T21:45:10.781Z,90.90
2018-11-13T21:48:15.039Z,91.00
2018-11-13T21:51:19.076Z,91.00
2018-11-13T21:54:23.647Z,91.20
2018-11-13T21:57:28.044Z,91.20
2018-11-13T22:00:37.059Z,91.30
2018-11-13T22:03:41.411Z,91.30
2018-11-13T22:06:47.736Z,91.60
2018-11-13T22:09:52.434Z,91.50
2018-11-13T22:12:56.560Z,91.60
2018-11-13T22:16:00.689Z,91.50
2018-11-13T22:19:05.333Z,91.80
2018-11-13T22:22:09.797Z,91.60
2018-11-13T22:25:16.458Z,91.90
2018-11-13T22:28:21.112Z,92.00
2018-11-13T22:31:25.840Z,92.20
2018-11-13T22:34:30.343Z,92.20
2018-11-13T22:37:34.656Z,92.30
2018-11-13T22:40:39.255Z,92.00
2018-11-13T22:43:43.707Z,92.10
2018-11-13T22:46:47.909Z,92.00
2018-11-13T22:49:51.946Z,91.90
2018-11-13T22:52:56.353Z,92.10
2018-11-13T22:56:00.732Z,91.80
2018-11-13T22:59:04.969Z,91.80
2018-11-13T23:02:09.368Z,92.00
2018-11-13T23:05:13.425Z,92.20
2018-11-13T23:08:18.755Z,92.40
2018-11-13T23:11:24.099Z,92.20
2018-11-13T23:14:28.071Z,92.40
2018-11-13T23:17:32.018Z,92.60
2018-11-13T23:20:36.078Z,92.60
2018-11-13T23:23:40.046Z,92.60
2018-11-13T23:26:44.019Z,92.50
2018-11-13T23:29:47.994Z,92.10
2018-11-13T23:32:52.451Z,92.00
2018-11-13T23:35:56.476Z,92.00
2018-11-13T23:39:00.964Z,92.00
2018-11-13T23:42:05.027Z,91.90
2018-11-13T23:45:09.398Z,91.80
2018-11-13T23:48:13.408Z,91.90
2018-11-13T23:51:17.380Z,91.90
2018-11-13T23:54:21.284Z,91.50
2018-11-13T23:57:25.275Z,91.50
